Time;durP1;ratioP1;P1;durP2;ratioP2;P2;SDS_P1;SDS_P2;PMS_P1;PMS_P2;Temp;Humidity;BMP_temperature;BMP_pressure;BME280_temperature;BME280_humidity;BME280_pressure;Samples;Min_cycle;Max_cycle;Signal;HPM_P1;HPM_P2
2024/01/07 00:00:19;;;;;;;10.93;9.20;;;;;;;;;;5153813;27;20057;-58
2024/01/07 00:02:45;;;;;;;11.05;8.80;;;;;;;;;;5153549;27;20065;-58
2024/01/07 00:05:12;;;;;;;10.10;8.80;;;;;;;;;;5153787;27;20054;-59
2024/01/07 00:07:40;;;;;;;11.27;9.45;;;;;;;;;;5153575;27;20058;-58
2024/01/07 00:10:08;;;;;;;11.70;9.25;;;;;;;;;;5153992;27;20050;-59
2024/01/07 00:12:35;;;;;;;11.05;9.00;;;;;;;;;;5153683;27;20523;-58
2024/01/07 00:15:02;;;;;;;10.20;8.88;;;;;;;;;;5154064;27;20046;-58
2024/01/07 00:17:29;;;;;;;12.27;9.77;;;;;;;;;;5153938;27;20055;-58
2024/01/07 00:19:56;;;;;;;14.48;10.48;;;;;;;;;;5154173;27;20074;-58
2024/01/07 00:22:23;;;;;;;14.23;10.63;;;;;;;;;;5153771;27;20407;-58
2024/01/07 00:24:51;;;;;;;13.70;11.02;;;;;;;;;;5153131;27;20043;-58
2024/01/07 00:27:18;;;;;;;17.20;11.90;;;;;;;;;;5153560;27;20058;-58
2024/01/07 00:29:44;;;;;;;15.35;11.63;;;;;;;;;;5154163;27;20074;-58
2024/01/07 00:32:11;;;;;;;16.73;11.63;;;;;;;;;;5156311;27;20057;-58
2024/01/07 00:34:38;;;;;;;14.57;11.20;;;;;;;;;;5157870;27;20058;-58
2024/01/07 00:37:05;;;;;;;15.63;11.68;;;;;;;;;;5157633;27;20058;-58
2024/01/07 00:39:32;;;;;;;15.30;11.23;;;;;;;;;;5157735;27;20051;-58
2024/01/07 00:42:00;;;;;;;16.55;11.80;;;;;;;;;;5157567;27;20057;-58
2024/01/07 00:44:27;;;;;;;16.88;11.80;;;;;;;;;;5157574;27;20047;-58
2024/01/07 00:46:53;;;;;;;18.42;12.85;;;;;;;;;;5157146;27;20046;-58
2024/01/07 00:49:20;;;;;;;19.50;13.73;;;;;;;;;;5157504;27;20050;-58
2024/01/07 00:51:47;;;;;;;19.95;14.13;;;;;;;;;;5156838;27;20057;-58
2024/01/07 00:54:14;;;;;;;17.48;13.10;;;;;;;;;;5157279;27;20463;-58
2024/01/07 00:56:41;;;;;;;18.98;13.88;;;;;;;;;;5157362;27;20057;-58
2024/01/07 00:59:09;;;;;;;19.23;13.93;;;;;;;;;;5157315;27;20050;-58
2024/01/07 01:01:35;;;;;;;19.20;14.80;;;;;;;;;;5157238;27;20050;-58
2024/01/07 01:04:02;;;;;;;20.52;14.05;;;;;;;;;;5157008;27;20047;-59
2024/01/07 01:06:29;;;;;;;19.13;14.32;;;;;;;;;;5156829;27;20042;-58
2024/01/07 01:08:56;;;;;;;19.65;14.00;;;;;;;;;;5157317;27;20057;-58
2024/01/07 01:11:23;;;;;;;19.90;14.10;;;;;;;;;;5156990;27;20402;-58
2024/01/07 01:13:49;;;;;;;16.52;13.05;;;;;;;;;;5157063;27;20479;-58
2024/01/07 01:16:18;;;;;;;19.73;13.90;;;;;;;;;;5156566;27;20046;-58
2024/01/07 01:18:44;;;;;;;18.30;14.90;;;;;;;;;;5156698;27;20499;-58
2024/01/07 01:21:12;;;;;;;19.20;14.18;;;;;;;;;;5156654;27;20054;-58
2024/01/07 01:23:38;;;;;;;16.48;13.27;;;;;;;;;;5156819;27;20055;-58
2024/01/07 01:26:05;;;;;;;16.38;12.48;;;;;;;;;;5156622;27;20062;-58
2024/01/07 01:28:32;;;;;;;15.50;11.82;;;;;;;;;;5156768;27;20050;-58
2024/01/07 01:30:59;;;;;;;16.20;12.05;;;;;;;;;;5156210;27;20062;-58
2024/01/07 01:33:27;;;;;;;15.45;11.38;;;;;;;;;;5156579;27;20050;-58
2024/01/07 01:35:54;;;;;;;17.58;12.93;;;;;;;;;;5156485;27;20507;-58
2024/01/07 01:38:21;;;;;;;18.10;13.02;;;;;;;;;;5156434;27;20050;-58
2024/01/07 01:40:51;;;;;;;18.45;13.68;;;;;;;;;;5156222;27;20046;-58
2024/01/07 01:43:23;;;;;;;17.80;13.93;;;;;;;;;;5155832;27;20411;-58
2024/01/07 01:45:49;;;;;;;17.25;13.75;;;;;;;;;;5155894;27;20058;-59
2024/01/07 01:48:16;;;;;;;20.73;15.27;;;;;;;;;;5156299;27;20051;-58
2024/01/07 01:50:45;;;;;;;20.13;14.57;;;;;;;;;;5156165;27;20507;-58
2024/01/07 01:53:12;;;;;;;20.52;15.35;;;;;;;;;;5155421;27;20060;-58
2024/01/07 01:55:39;;;;;;;20.08;14.77;;;;;;;;;;5156197;27;20046;-58
2024/01/07 01:58:06;;;;;;;20.98;16.05;;;;;;;;;;5155990;27;20051;-58
2024/01/07 02:00:33;;;;;;;21.50;16.20;;;;;;;;;;5155997;27;20073;-58
2024/01/07 02:03:00;;;;;;;25.75;18.73;;;;;;;;;;5155676;27;20057;-58
2024/01/07 02:05:28;;;;;;;25.95;18.63;;;;;;;;;;5155806;27;20043;-59
2024/01/07 02:07:57;;;;;;;24.15;18.50;;;;;;;;;;5155441;27;20059;-58
2024/01/07 02:10:23;;;;;;;23.27;17.30;;;;;;;;;;5155544;27;20051;-58
2024/01/07 02:12:50;;;;;;;22.95;16.92;;;;;;;;;;5155821;27;20051;-58
2024/01/07 02:15:17;;;;;;;22.80;17.13;;;;;;;;;;5155634;27;20047;-58
2024/01/07 02:17:44;;;;;;;23.05;17.02;;;;;;;;;;5155141;27;20391;-58
2024/01/07 02:20:11;;;;;;;28.27;19.98;;;;;;;;;;5155460;27;20054;-58
2024/01/07 02:22:38;;;;;;;26.73;18.88;;;;;;;;;;5155145;27;20050;-59
2024/01/07 02:25:06;;;;;;;23.30;17.67;;;;;;;;;;5154876;27;20054;-58
2024/01/07 02:27:33;;;;;;;25.02;17.40;;;;;;;;;;5155500;27;20050;-58
2024/01/07 02:30:00;;;;;;;23.70;18.55;;;;;;;;;;5155693;27;20054;-58
2024/01/07 02:32:27;;;;;;;22.35;17.25;;;;;;;;;;5155196;27;20058;-59
2024/01/07 02:34:53;;;;;;;22.67;17.33;;;;;;;;;;5155509;27;20053;-58
2024/01/07 02:37:20;;;;;;;23.23;17.15;;;;;;;;;;5155149;27;20046;-58
2024/01/07 02:39:48;;;;;;;21.33;16.63;;;;;;;;;;5155325;27;20058;-58
2024/01/07 02:42:16;;;;;;;22.60;17.65;;;;;;;;;;5155080;27;20061;-58
2024/01/07 02:44:43;;;;;;;25.05;18.77;;;;;;;;;;5155196;27;20050;-58
2024/01/07 02:47:10;;;;;;;25.10;19.20;;;;;;;;;;5154707;27;20055;-58
2024/01/07 02:49:36;;;;;;;24.38;19.02;;;;;;;;;;5155119;27;20053;-58
2024/01/07 02:52:03;;;;;;;25.52;18.52;;;;;;;;;;5154361;27;20082;-58
2024/01/07 02:54:30;;;;;;;26.50;18.83;;;;;;;;;;5154198;27;20057;-58
2024/01/07 02:56:57;;;;;;;24.65;19.00;;;;;;;;;;5154457;27;20047;-57
2024/01/07 02:59:25;;;;;;;25.90;18.95;;;;;;;;;;5155000;27;20054;-58
2024/01/07 03:01:52;;;;;;;22.83;17.27;;;;;;;;;;5154719;27;20057;-58
2024/01/07 03:04:19;;;;;;;23.42;18.17;;;;;;;;;;5154873;27;20057;-58
2024/01/07 03:06:46;;;;;;;21.83;16.52;;;;;;;;;;5154672;27;20053;-59
2024/01/07 03:09:13;;;;;;;20.88;16.95;;;;;;;;;;5154871;27;20388;-58
2024/01/07 03:11:40;;;;;;;23.20;17.58;;;;;;;;;;5154702;27;20161;-58
2024/01/07 03:14:07;;;;;;;18.80;15.57;;;;;;;;;;5154579;27;20494;-58
2024/01/07 03:16:35;;;;;;;17.30;14.32;;;;;;;;;;5154162;27;20043;-58
2024/01/07 03:19:02;;;;;;;18.55;14.90;;;;;;;;;;5154129;27;20057;-58
2024/01/07 03:21:29;;;;;;;16.77;13.95;;;;;;;;;;5154456;27;20054;-59
2024/01/07 03:23:56;;;;;;;17.42;14.40;;;;;;;;;;5154342;27;20049;-58
2024/01/07 03:26:23;;;;;;;16.30;14.25;;;;;;;;;;5154183;27;20051;-58
2024/01/07 03:28:50;;;;;;;18.00;14.55;;;;;;;;;;5154456;27;20395;-58
2024/01/07 03:31:17;;;;;;;15.90;13.57;;;;;;;;;;5154508;27;20047;-58
2024/01/07 03:33:45;;;;;;;15.05;13.30;;;;;;;;;;5154228;27;20054;-58
2024/01/07 03:36:12;;;;;;;16.85;13.90;;;;;;;;;;5154234;27;20053;-59
2024/01/07 03:38:40;;;;;;;15.60;13.75;;;;;;;;;;5154258;27;20522;-58
2024/01/07 03:41:07;;;;;;;16.73;13.98;;;;;;;;;;5153952;27;20515;-58
2024/01/07 03:43:33;;;;;;;15.25;13.35;;;;;;;;;;5154413;27;20051;-58
2024/01/07 03:46:01;;;;;;;15.73;12.63;;;;;;;;;;5154117;27;20062;-58
2024/01/07 03:48:27;;;;;;;17.63;13.65;;;;;;;;;;5154048;27;20050;-58
2024/01/07 03:50:56;;;;;;;16.00;13.23;;;;;;;;;;5154202;27;20055;-59
2024/01/07 03:53:23;;;;;;;15.20;13.23;;;;;;;;;;5153656;27;20059;-58
2024/01/07 03:55:50;;;;;;;16.58;13.65;;;;;;;;;;5153651;27;20050;-58
2024/01/07 03:58:17;;;;;;;16.55;14.45;;;;;;;;;;5153783;27;20051;-58
2024/01/07 04:00:43;;;;;;;16.48;13.05;;;;;;;;;;5153783;27;20063;-58
2024/01/07 04:03:10;;;;;;;17.00;14.60;;;;;;;;;;5153642;27;20054;-58
2024/01/07 04:05:37;;;;;;;18.60;14.95;;;;;;;;;;5155325;27;20050;-58
2024/01/07 04:08:06;;;;;;;20.15;15.35;;;;;;;;;;5157977;27;20475;-58
2024/01/07 04:10:33;;;;;;;18.77;14.50;;;;;;;;;;5158060;27;20054;-58
2024/01/07 04:12:59;;;;;;;22.42;17.05;;;;;;;;;;5157666;27;20051;-58
2024/01/07 04:15:26;;;;;;;20.55;16.00;;;;;;;;;;5157846;27;20046;-58
2024/01/07 04:17:53;;;;;;;21.80;16.52;;;;;;;;;;5157983;27;20051;-58
2024/01/07 04:20:20;;;;;;;20.85;15.77;;;;;;;;;;5157956;27;20050;-58
2024/01/07 04:22:46;;;;;;;25.75;16.65;;;;;;;;;;5157602;27;20054;-58
2024/01/07 04:25:15;;;;;;;22.05;16.75;;;;;;;;;;5157336;27;20047;-58
2024/01/07 04:27:41;;;;;;;21.48;16.30;;;;;;;;;;5157363;27;20159;-58
2024/01/07 04:30:09;;;;;;;23.20;17.40;;;;;;;;;;5157690;27;20054;-58
2024/01/07 04:32:35;;;;;;;20.80;16.75;;;;;;;;;;5157234;27;20057;-58
2024/01/07 04:35:02;;;;;;;22.05;15.73;;;;;;;;;;5156199;27;20054;-58
2024/01/07 04:37:29;;;;;;;21.80;17.25;;;;;;;;;;5152558;27;20054;-58
2024/01/07 04:39:56;;;;;;;20.45;16.33;;;;;;;;;;5136685;27;20058;-58
2024/01/07 04:42:24;;;;;;;21.27;16.20;;;;;;;;;;5136194;27;20054;-58
2024/01/07 04:44:51;;;;;;;20.23;15.95;;;;;;;;;;5136604;27;20396;-58
2024/01/07 04:47:27;;;;;;;18.02;15.05;;;;;;;;;;5135977;27;20054;-58
2024/01/07 04:49:54;;;;;;;16.60;13.65;;;;;;;;;;5136488;27;20078;-58
2024/01/07 04:52:22;;;;;;;20.08;15.13;;;;;;;;;;5135919;27;20051;-58
2024/01/07 04:54:49;;;;;;;19.95;14.98;;;;;;;;;;5136497;27;20054;-58
2024/01/07 04:57:16;;;;;;;16.10;13.38;;;;;;;;;;5136277;27;20047;-58
2024/01/07 04:59:44;;;;;;;18.45;14.98;;;;;;;;;;5136522;27;20051;-58
2024/01/07 05:02:11;;;;;;;17.58;14.77;;;;;;;;;;5136218;27;20055;-58
2024/01/07 05:04:38;;;;;;;17.75;13.70;;;;;;;;;;5136209;27;20058;-58
2024/01/07 05:07:05;;;;;;;18.63;14.82;;;;;;;;;;5135673;27;20051;-58
2024/01/07 05:09:32;;;;;;;17.52;13.93;;;;;;;;;;5136077;27;20365;-58
2024/01/07 05:11:59;;;;;;;18.48;13.70;;;;;;;;;;5136010;27;20404;-58
2024/01/07 05:14:26;;;;;;;17.08;13.15;;;;;;;;;;5136036;27;20058;-58
2024/01/07 05:16:55;;;;;;;17.33;14.45;;;;;;;;;;5135281;27;20499;-58
2024/01/07 05:19:22;;;;;;;18.03;14.17;;;;;;;;;;5136011;27;20055;-58
2024/01/07 05:21:49;;;;;;;17.75;13.35;;;;;;;;;;5135751;27;20384;-58
2024/01/07 05:24:15;;;;;;;17.88;14.07;;;;;;;;;;5142182;27;20460;-58
2024/01/07 05:26:43;;;;;;;19.33;15.35;;;;;;;;;;5156766;27;20051;-59
2024/01/07 05:29:10;;;;;;;19.73;15.55;;;;;;;;;;5156212;27;20058;-58
2024/01/07 05:31:36;;;;;;;17.65;13.77;;;;;;;;;;5156720;27;20072;-58
2024/01/07 05:34:05;;;;;;;19.10;14.32;;;;;;;;;;5156580;27;20407;-58
2024/01/07 05:36:31;;;;;;;18.33;14.40;;;;;;;;;;5156313;27;20055;-58
2024/01/07 05:38:58;;;;;;;18.45;13.80;;;;;;;;;;5156638;27;20047;-58
2024/01/07 05:41:25;;;;;;;19.15;14.27;;;;;;;;;;5156183;27;20452;-58
2024/01/07 05:43:52;;;;;;;17.35;14.52;;;;;;;;;;5156171;27;20055;-58
2024/01/07 05:46:18;;;;;;;17.67;13.85;;;;;;;;;;5156327;27;20050;-59
2024/01/07 05:48:46;;;;;;;19.20;15.25;;;;;;;;;;5156122;27;20380;-59
2024/01/07 05:51:14;;;;;;;19.83;14.90;;;;;;;;;;5155912;27;20050;-58
2024/01/07 05:53:41;;;;;;;19.13;15.35;;;;;;;;;;5155697;27;20050;-58
2024/01/07 05:56:08;;;;;;;16.77;13.77;;;;;;;;;;5156088;27;20054;-58
2024/01/07 05:58:35;;;;;;;18.23;14.38;;;;;;;;;;5155719;27;20058;-58
2024/01/07 06:01:02;;;;;;;19.55;15.43;;;;;;;;;;5156060;27;20415;-58
2024/01/07 06:03:29;;;;;;;19.67;14.77;;;;;;;;;;5155977;27;20058;-58
2024/01/07 06:05:56;;;;;;;19.58;14.80;;;;;;;;;;5155739;27;20057;-58
2024/01/07 06:08:24;;;;;;;19.17;15.15;;;;;;;;;;5155652;27;20475;-58
2024/01/07 06:10:51;;;;;;;17.05;13.52;;;;;;;;;;5155836;27;20055;-58
2024/01/07 06:13:18;;;;;;;18.65;14.00;;;;;;;;;;5155700;27;20051;-58
2024/01/07 06:15:45;;;;;;;20.52;15.23;;;;;;;;;;5155869;27;20050;-58
2024/01/07 06:18:11;;;;;;;17.40;14.40;;;;;;;;;;5155813;27;20053;-58
2024/01/07 06:20:39;;;;;;;17.52;14.13;;;;;;;;;;5155478;27;20521;-58
2024/01/07 06:23:06;;;;;;;17.85;14.73;;;;;;;;;;5155449;27;20051;-58
2024/01/07 06:25:34;;;;;;;20.92;15.32;;;;;;;;;;5155406;27;20047;-58
2024/01/07 06:28:01;;;;;;;18.15;14.13;;;;;;;;;;5154934;27;20372;-58
2024/01/07 06:30:27;;;;;;;19.20;15.15;;;;;;;;;;5154487;27;20055;-58
2024/01/07 06:32:54;;;;;;;19.67;14.65;;;;;;;;;;5155321;27;20054;-58
2024/01/07 06:35:21;;;;;;;19.60;15.02;;;;;;;;;;5154797;27;20054;-58
2024/01/07 06:37:48;;;;;;;18.30;14.02;;;;;;;;;;5155193;27;20047;-58
2024/01/07 06:40:16;;;;;;;21.25;14.25;;;;;;;;;;5154789;27;20055;-58
2024/01/07 06:42:44;;;;;;;18.00;13.43;;;;;;;;;;5154708;27;20047;-58
2024/01/07 06:45:11;;;;;;;19.15;14.43;;;;;;;;;;5154772;27;20054;-58
2024/01/07 06:47:38;;;;;;;19.08;14.98;;;;;;;;;;5154557;27;20043;-59
2024/01/07 06:50:05;;;;;;;19.10;13.95;;;;;;;;;;5155005;27;20064;-58
2024/01/07 06:52:31;;;;;;;19.58;14.48;;;;;;;;;;5154317;27;20120;-57
2024/01/07 06:54:58;;;;;;;17.58;14.07;;;;;;;;;;5154903;27;20059;-58
2024/01/07 06:57:25;;;;;;;18.95;14.93;;;;;;;;;;5154499;27;20047;-58
2024/01/07 06:59:53;;;;;;;19.75;15.40;;;;;;;;;;5154825;27;20079;-58
2024/01/07 07:02:20;;;;;;;18.73;13.93;;;;;;;;;;5154508;27;20046;-58
2024/01/07 07:04:47;;;;;;;16.95;12.35;;;;;;;;;;5154869;27;20047;-58
2024/01/07 07:07:14;;;;;;;18.40;13.00;;;;;;;;;;5154358;27;20050;-58
2024/01/07 07:09:41;;;;;;;18.38;13.88;;;;;;;;;;5154735;27;20055;-58
2024/01/07 07:12:08;;;;;;;14.75;11.77;;;;;;;;;;5154076;27;20069;-58
2024/01/07 07:14:35;;;;;;;15.48;12.10;;;;;;;;;;5154467;27;20051;-58
2024/01/07 07:17:03;;;;;;;15.07;10.95;;;;;;;;;;5154278;27;20055;-58
2024/01/07 07:19:30;;;;;;;12.55;10.02;;;;;;;;;;5154246;27;20407;-59
2024/01/07 07:21:57;;;;;;;12.38;9.98;;;;;;;;;;5153929;27;20435;-58
2024/01/07 07:24:23;;;;;;;13.25;10.75;;;;;;;;;;5153553;27;20057;-58
2024/01/07 07:26:50;;;;;;;12.60;10.40;;;;;;;;;;5154125;27;20051;-58
2024/01/07 07:29:17;;;;;;;12.63;9.10;;;;;;;;;;5154393;27;20065;-58
2024/01/07 07:31:44;;;;;;;11.60;9.10;;;;;;;;;;5153838;27;20051;-58
2024/01/07 07:34:12;;;;;;;10.27;8.38;;;;;;;;;;5153878;27;20059;-58
2024/01/07 07:36:40;;;;;;;12.30;10.15;;;;;;;;;;5153752;27;20062;-58
2024/01/07 07:39:07;;;;;;;15.23;10.27;;;;;;;;;;5153930;27;20042;-58
2024/01/07 07:41:34;;;;;;;11.18;9.10;;;;;;;;;;5153225;27;20057;-58
2024/01/07 07:44:01;;;;;;;10.60;9.02;;;;;;;;;;5153754;27;20057;-58
2024/01/07 07:46:27;;;;;;;11.00;8.73;;;;;;;;;;5153550;27;20057;-58
2024/01/07 07:48:54;;;;;;;10.38;9.27;;;;;;;;;;5153613;27;20054;-58
2024/01/07 07:51:22;;;;;;;10.32;8.70;;;;;;;;;;5153530;27;20046;-58
2024/01/07 07:53:49;;;;;;;12.13;9.30;;;;;;;;;;5153372;27;20051;-58
2024/01/07 07:56:16;;;;;;;9.25;7.90;;;;;;;;;;5153583;27;20383;-58
2024/01/07 07:58:42;;;;;;;10.57;8.90;;;;;;;;;;5153835;27;20510;-58
2024/01/07 08:01:09;;;;;;;9.10;7.72;;;;;;;;;;5153469;27;20047;-58
2024/01/07 08:03:36;;;;;;;9.82;8.10;;;;;;;;;;5153509;27;20051;-58
2024/01/07 08:06:03;;;;;;;9.45;8.00;;;;;;;;;;5153370;27;20057;-58
2024/01/07 08:08:32;;;;;;;11.23;8.25;;;;;;;;;;5153327;27;20058;-58
2024/01/07 08:10:58;;;;;;;9.85;8.55;;;;;;;;;;5153499;27;20062;-58
2024/01/07 08:13:25;;;;;;;12.68;9.15;;;;;;;;;;5153675;27;20050;-58
2024/01/07 08:15:52;;;;;;;12.35;9.55;;;;;;;;;;5153280;27;20389;-58
2024/01/07 08:18:19;;;;;;;12.90;9.73;;;;;;;;;;5153445;27;20372;-57
2024/01/07 08:20:46;;;;;;;13.73;10.52;;;;;;;;;;5153510;27;20055;-57
2024/01/07 08:23:12;;;;;;;14.20;10.57;;;;;;;;;;5153431;27;20054;-58
2024/01/07 08:25:41;;;;;;;15.07;11.98;;;;;;;;;;5153603;27;20054;-58
2024/01/07 08:28:08;;;;;;;15.68;11.93;;;;;;;;;;5152953;27;20464;-58
2024/01/07 08:30:34;;;;;;;16.55;11.30;;;;;;;;;;5153626;27;20046;-58
2024/01/07 08:33:01;;;;;;;15.70;12.18;;;;;;;;;;5153560;27;20054;-58
2024/01/07 08:35:28;;;;;;;14.48;12.00;;;;;;;;;;5153377;27;20050;-57
2024/01/07 08:37:55;;;;;;;15.30;12.23;;;;;;;;;;5153160;27;20047;-58
2024/01/07 08:40:22;;;;;;;14.32;10.85;;;;;;;;;;5153639;27;20062;-58
2024/01/07 08:42:50;;;;;;;14.50;12.13;;;;;;;;;;5153414;27;20385;-57
2024/01/07 08:45:18;;;;;;;14.43;11.80;;;;;;;;;;5153167;27;20050;-58
2024/01/07 08:47:45;;;;;;;13.25;10.65;;;;;;;;;;5153464;27;20055;-58
2024/01/07 08:50:12;;;;;;;14.35;11.52;;;;;;;;;;5153521;27;20054;-58
2024/01/07 08:52:39;;;;;;;13.00;10.88;;;;;;;;;;5154562;27;20059;-58
2024/01/07 08:55:09;;;;;;;15.88;11.52;;;;;;;;;;5157294;27;20399;-57
2024/01/07 08:57:36;;;;;;;;;;;;;;;;;;5157171;27;20053;-57
2024/01/07 09:00:07;;;;;;;15.60;11.95;;;;;;;;;;5157073;27;19926;-57
2024/01/07 09:02:34;;;;;;;14.02;11.80;;;;;;;;;;5156632;27;20062;-58
2024/01/07 09:05:01;;;;;;;14.98;11.20;;;;;;;;;;5157010;27;20605;-58
2024/01/07 09:07:27;;;;;;;11.10;9.50;;;;;;;;;;5157046;27;20050;-58
2024/01/07 09:09:59;;;;;;;14.15;10.38;;;;;;;;;;5157062;27;20472;-58
2024/01/07 09:12:26;;;;;;;13.90;10.15;;;;;;;;;;5156648;27;20058;-58
2024/01/07 09:14:52;;;;;;;11.02;9.13;;;;;;;;;;5156875;27;20057;-58
2024/01/07 09:17:21;;;;;;;13.48;9.88;;;;;;;;;;5156480;27;20086;-58
2024/01/07 09:19:48;;;;;;;11.32;9.32;;;;;;;;;;5156812;27;20412;-58
2024/01/07 09:22:14;;;;;;;11.52;9.73;;;;;;;;;;5155981;27;20070;-58
2024/01/07 09:24:41;;;;;;;10.57;8.70;;;;;;;;;;5156562;27;20050;-57
2024/01/07 09:27:08;;;;;;;13.82;10.27;;;;;;;;;;5156096;27;20051;-57
2024/01/07 09:29:35;;;;;;;14.10;9.75;;;;;;;;;;5156724;27;20054;-58
2024/01/07 09:32:02;;;;;;;12.25;8.90;;;;;;;;;;5156276;27;20461;-58
2024/01/07 09:34:30;;;;;;;12.18;9.13;;;;;;;;;;5156085;27;20051;-58
2024/01/07 09:36:56;;;;;;;15.57;10.02;;;;;;;;;;5156660;27;20368;-58
2024/01/07 09:39:25;;;;;;;12.23;8.57;;;;;;;;;;5156533;27;20050;-58
2024/01/07 09:41:52;;;;;;;14.63;9.48;;;;;;;;;;5155915;27;20057;-58
2024/01/07 09:44:19;;;;;;;13.75;9.00;;;;;;;;;;5156420;27;20055;-63
2024/01/07 09:46:51;;;;;;;11.23;7.38;;;;;;;;;;5156282;27;20146;-58
2024/01/07 09:49:18;;;;;;;11.07;8.23;;;;;;;;;;5156004;27;20042;-58
2024/01/07 09:51:46;;;;;;;9.68;7.20;;;;;;;;;;5155728;27;20472;-58
2024/01/07 09:54:16;;;;;;;11.63;8.13;;;;;;;;;;5156144;27;20361;-58
2024/01/07 09:56:44;;;;;;;10.35;7.05;;;;;;;;;;5155527;27;20051;-58
2024/01/07 09:59:11;;;;;;;9.18;6.90;;;;;;;;;;5155992;27;20047;-59
2024/01/07 10:01:38;;;;;;;11.75;7.65;;;;;;;;;;5155869;27;20055;-58
2024/01/07 10:04:05;;;;;;;10.70;7.63;;;;;;;;;;5155251;27;20053;-58
2024/01/07 10:06:32;;;;;;;9.80;7.55;;;;;;;;;;5155648;27;20412;-58
2024/01/07 10:09:00;;;;;;;13.63;9.23;;;;;;;;;;5155448;27;20387;-58
2024/01/07 10:11:27;;;;;;;17.70;11.98;;;;;;;;;;5155275;27;20050;-58
2024/01/07 10:13:54;;;;;;;16.17;11.38;;;;;;;;;;5155364;27;20066;-58
2024/01/07 10:16:21;;;;;;;15.20;10.02;;;;;;;;;;5155262;27;20061;-58
2024/01/07 10:18:47;;;;;;;10.88;7.25;;;;;;;;;;5155409;27;20058;-58
2024/01/07 10:21:14;;;;;;;11.90;7.30;;;;;;;;;;5155084;27;20051;-58
2024/01/07 10:23:41;;;;;;;12.43;8.32;;;;;;;;;;5155202;27;20055;-58
2024/01/07 10:26:09;;;;;;;23.13;12.52;;;;;;;;;;5154677;27;20057;-58
2024/01/07 10:28:37;;;;;;;17.60;9.80;;;;;;;;;;5155171;27;20047;-58
2024/01/07 10:31:04;;;;;;;43.03;17.52;;;;;;;;;;5155196;27;20403;-58
2024/01/07 10:33:31;;;;;;;15.85;8.88;;;;;;;;;;5154884;27;20053;-58
2024/01/07 10:36:03;;;;;;;16.73;10.05;;;;;;;;;;5154992;27;20054;-58
2024/01/07 10:38:30;;;;;;;8.85;7.13;;;;;;;;;;5155260;27;20403;-58
2024/01/07 10:41:00;;;;;;;8.82;6.32;;;;;;;;;;5154440;27;20050;-58
2024/01/07 10:43:29;;;;;;;13.00;10.68;;;;;;;;;;5155205;27;20395;-58
2024/01/07 10:45:56;;;;;;;8.50;6.30;;;;;;;;;;5155064;27;20051;-58
2024/01/07 10:48:25;;;;;;;7.60;5.82;;;;;;;;;;5154987;27;20054;-58
2024/01/07 10:50:53;;;;;;;9.68;6.40;;;;;;;;;;5154953;27;20058;-58
2024/01/07 10:53:22;;;;;;;9.07;6.13;;;;;;;;;;5154305;27;20054;-58
2024/01/07 10:55:53;;;;;;;9.63;6.55;;;;;;;;;;5154632;27;20063;-58
2024/01/07 10:58:20;;;;;;;13.38;9.02;;;;;;;;;;5154257;27;20415;-58
2024/01/07 11:00:49;;;;;;;7.97;5.78;;;;;;;;;;5154282;27;20046;-58
2024/01/07 11:03:19;;;;;;;11.43;6.93;;;;;;;;;;5154297;27;20051;-58
2024/01/07 11:05:50;;;;;;;11.40;6.45;;;;;;;;;;5154627;27;20055;-58
2024/01/07 11:08:20;;;;;;;7.72;5.07;;;;;;;;;;5153972;27;20058;-58
2024/01/07 11:10:49;;;;;;;7.65;5.82;;;;;;;;;;5154348;27;20069;-57
2024/01/07 11:13:32;;;;;;;12.48;7.22;;;;;;;;;;5154488;27;20050;-58
2024/01/07 11:16:00;;;;;;;16.25;9.82;;;;;;;;;;5153659;27;20069;-58
2024/01/07 11:18:31;;;;;;;12.45;7.32;;;;;;;;;;5154359;27;20490;-58
2024/01/07 11:21:00;;;;;;;11.23;6.53;;;;;;;;;;5154289;27;20062;-58
2024/01/07 11:23:28;;;;;;;8.43;5.28;;;;;;;;;;5153982;27;20051;-58
2024/01/07 11:25:55;;;;;;;7.88;5.75;;;;;;;;;;5154009;27;20406;-58
2024/01/07 11:28:43;;;;;;;10.32;6.72;;;;;;;;;;5154201;27;20057;-58
2024/01/07 11:31:11;;;;;;;9.65;6.70;;;;;;;;;;5153852;27;20488;-58
2024/01/07 11:33:38;;;;;;;8.02;5.63;;;;;;;;;;5153894;27;20395;-58
2024/01/07 11:36:05;;;;;;;10.50;7.00;;;;;;;;;;5154038;27;20055;-58
2024/01/07 11:38:32;;;;;;;11.30;7.18;;;;;;;;;;5154108;27;20050;-58
2024/01/07 11:40:59;;;;;;;7.07;5.15;;;;;;;;;;5154080;27;20046;-57
2024/01/07 11:43:26;;;;;;;6.32;5.20;;;;;;;;;;5153836;27;20094;-58
2024/01/07 11:45:54;;;;;;;9.75;5.90;;;;;;;;;;5153690;27;20479;-58
2024/01/07 11:48:22;;;;;;;12.57;6.88;;;;;;;;;;5153546;27;20043;-58
2024/01/07 11:50:49;;;;;;;6.35;5.03;;;;;;;;;;5153959;27;20058;-58
2024/01/07 11:53:16;;;;;;;9.63;6.50;;;;;;;;;;5153581;27;20132;-57
2024/01/07 11:55:43;;;;;;;13.63;9.10;;;;;;;;;;5154175;27;20066;-58
2024/01/07 11:58:10;;;;;;;7.72;5.90;;;;;;;;;;5153743;27;20058;-58
2024/01/07 12:00:37;;;;;;;6.07;5.00;;;;;;;;;;5153628;27;20451;-58
2024/01/07 12:03:04;;;;;;;6.32;4.82;;;;;;;;;;5153855;27;20522;-57
2024/01/07 12:05:32;;;;;;;6.15;5.30;;;;;;;;;;5153596;27;20046;-58
2024/01/07 12:08:01;;;;;;;6.95;5.03;;;;;;;;;;5153696;27;20058;-58
2024/01/07 12:10:28;;;;;;;15.07;9.40;;;;;;;;;;5153254;27;20047;-57
2024/01/07 12:12:55;;;;;;;7.25;5.45;;;;;;;;;;5153542;27;20051;-57
2024/01/07 12:15:23;;;;;;;6.50;5.07;;;;;;;;;;5153616;27;20046;-57
2024/01/07 12:17:56;;;;;;;6.55;5.18;;;;;;;;;;5153431;27;20055;-58
2024/01/07 12:20:23;;;;;;;6.28;4.53;;;;;;;;;;5153513;27;20054;-57
2024/01/07 12:22:51;;;;;;;7.55;5.28;;;;;;;;;;5152961;27;20074;-58
2024/01/07 12:25:22;;;;;;;6.32;4.82;;;;;;;;;;5153343;27;20479;-58
2024/01/07 12:27:52;;;;;;;6.53;5.13;;;;;;;;;;5155672;27;20055;-57
2024/01/07 12:30:19;;;;;;;6.80;4.63;;;;;;;;;;5157271;27;20053;-58
2024/01/07 12:32:46;;;;;;;7.03;5.53;;;;;;;;;;5156994;27;20061;-58
2024/01/07 12:35:13;;;;;;;7.45;4.60;;;;;;;;;;5157267;27;20054;-57
2024/01/07 12:37:40;;;;;;;5.22;4.70;;;;;;;;;;5157345;27;20046;-57
2024/01/07 12:40:10;;;;;;;6.80;5.65;;;;;;;;;;5156963;27;20047;-57
2024/01/07 12:42:39;;;;;;;5.93;4.43;;;;;;;;;;5157148;27;20070;-58
2024/01/07 12:45:06;;;;;;;6.45;4.70;;;;;;;;;;5156760;27;20423;-58
2024/01/07 12:47:33;;;;;;;6.28;4.90;;;;;;;;;;5157148;27;20046;-57
2024/01/07 12:50:00;;;;;;;4.65;3.63;;;;;;;;;;5157297;27;20054;-58
2024/01/07 12:52:28;;;;;;;6.47;3.58;;;;;;;;;;5156244;27;20073;-57
2024/01/07 12:54:55;;;;;;;5.15;3.47;;;;;;;;;;5157083;27;20057;-57
2024/01/07 12:57:24;;;;;;;6.60;3.92;;;;;;;;;;5157028;27;20054;-57
2024/01/07 12:59:50;;;;;;;3.65;3.03;;;;;;;;;;5157150;27;20468;-57
2024/01/07 13:02:17;;;;;;;5.53;4.13;;;;;;;;;;5156488;27;20066;-58
2024/01/07 13:04:45;;;;;;;4.53;3.20;;;;;;;;;;5157134;27;20051;-58
2024/01/07 13:07:12;;;;;;;4.53;2.95;;;;;;;;;;5156281;27;20515;-58
2024/01/07 13:09:38;;;;;;;5.57;3.72;;;;;;;;;;5156759;27;20050;-57
2024/01/07 13:12:05;;;;;;;4.75;3.70;;;;;;;;;;5156557;27;20073;-56
2024/01/07 13:14:34;;;;;;;7.53;4.90;;;;;;;;;;5156769;27;20058;-57
2024/01/07 13:17:00;;;;;;;5.72;3.78;;;;;;;;;;5156631;27;20377;-57
2024/01/07 13:19:27;;;;;;;6.10;3.97;;;;;;;;;;5156734;27;20399;-58
2024/01/07 13:21:58;;;;;;;5.80;3.83;;;;;;;;;;5156149;27;20042;-58
2024/01/07 13:24:24;;;;;;;6.55;4.00;;;;;;;;;;5156662;27;20058;-57
2024/01/07 13:26:51;;;;;;;5.40;3.40;;;;;;;;;;5156444;27;20046;-58
2024/01/07 13:29:18;;;;;;;5.25;3.50;;;;;;;;;;5156442;27;20057;-57
2024/01/07 13:31:46;;;;;;;3.63;3.08;;;;;;;;;;5155776;27;20499;-58
2024/01/07 13:34:14;;;;;;;4.28;3.17;;;;;;;;;;5156375;27;20054;-58
2024/01/07 13:36:41;;;;;;;3.72;3.30;;;;;;;;;;5156018;27;20046;-58
2024/01/07 13:39:08;;;;;;;5.60;4.43;;;;;;;;;;5155731;27;20391;-57
2024/01/07 13:41:35;;;;;;;5.68;3.50;;;;;;;;;;5156226;27;20470;-58
2024/01/07 13:44:03;;;;;;;4.68;3.47;;;;;;;;;;5156353;27;20050;-57
2024/01/07 13:46:30;;;;;;;4.70;3.42;;;;;;;;;;5156307;27;20046;-57
2024/01/07 13:48:59;;;;;;;6.43;4.10;;;;;;;;;;5156036;27;20058;-57
2024/01/07 13:51:26;;;;;;;5.47;3.43;;;;;;;;;;5155804;27;20057;-58
2024/01/07 13:53:53;;;;;;;4.57;3.30;;;;;;;;;;5155594;27;20415;-57
2024/01/07 13:56:20;;;;;;;4.93;3.83;;;;;;;;;;5155411;27;20057;-57
2024/01/07 13:58:49;;;;;;;4.18;2.92;;;;;;;;;;5155617;27;20078;-58
2024/01/07 14:01:17;;;;;;;7.65;4.78;;;;;;;;;;5155384;27;20046;-58
2024/01/07 14:03:43;;;;;;;7.60;4.50;;;;;;;;;;5155398;27;20483;-57
2024/01/07 14:06:12;;;;;;;8.23;5.15;;;;;;;;;;5155195;27;20054;-57
2024/01/07 14:08:38;;;;;;;8.35;3.80;;;;;;;;;;5155101;27;20051;-57
2024/01/07 14:11:07;;;;;;;4.85;3.00;;;;;;;;;;5155175;27;20051;-57
2024/01/07 14:13:33;;;;;;;5.57;3.67;;;;;;;;;;5155418;27;20142;-57
2024/01/07 14:16:01;;;;;;;5.40;3.58;;;;;;;;;;5155246;27;20051;-57
2024/01/07 14:18:28;;;;;;;6.47;4.07;;;;;;;;;;5155613;27;20058;-58
2024/01/07 14:20:54;;;;;;;3.95;3.22;;;;;;;;;;5155219;27;20050;-57
2024/01/07 14:23:23;;;;;;;3.58;2.83;;;;;;;;;;5155323;27;20053;-57
2024/01/07 14:25:49;;;;;;;4.90;3.13;;;;;;;;;;5155319;27;20062;-58